sensor_id;sensor_type;location;lat;lon;timestamp;P1;durP1;ratioP1;P2;durP2;ratioP2
5357;SDS011;2702;51.014;7.170;2023-08-12T00:00:35;22.23;;;20.10;;
5357;SDS011;2702;51.014;7.170;2023-08-12T00:03:02;25.07;;;22.73;;
5357;SDS011;2702;51.014;7.170;2023-08-12T00:05:28;23.33;;;20.90;;
5357;SDS011;2702;51.014;7.170;2023-08-12T00:07:55;24.93;;;22.33;;
5357;SDS011;2702;51.014;7.170;2023-08-12T00:10:22;22.50;;;20.30;;
5357;SDS011;2702;51.014;7.170;2023-08-12T00:12:48;23.90;;;21.50;;
5357;SDS011;2702;51.014;7.170;2023-08-12T00:15:14;23.27;;;21.07;;
5357;SDS011;2702;51.014;7.170;2023-08-12T00:17:41;22.30;;;20.40;;
5357;SDS011;2702;51.014;7.170;2023-08-12T00:20:07;23.20;;;21.00;;
5357;SDS011;2702;51.014;7.170;2023-08-12T00:22:37;22.57;;;20.27;;
5357;SDS011;2702;51.014;7.170;2023-08-12T00:25:05;23.93;;;21.73;;
5357;SDS011;2702;51.014;7.170;2023-08-12T00:27:32;22.30;;;19.60;;
5357;SDS011;2702;51.014;7.170;2023-08-12T00:29:58;18.13;;;16.40;;
5357;SDS011;2702;51.014;7.170;2023-08-12T00:32:24;19.07;;;17.30;;
5357;SDS011;2702;51.014;7.170;2023-08-12T00:34:50;19.13;;;17.13;;
5357;SDS011;2702;51.014;7.170;2023-08-12T00:37:17;19.00;;;17.20;;
5357;SDS011;2702;51.014;7.170;2023-08-12T00:39:43;18.10;;;16.37;;
5357;SDS011;2702;51.014;7.170;2023-08-12T00:42:09;17.60;;;15.97;;
5357;SDS011;2702;51.014;7.170;2023-08-12T00:44:36;16.13;;;14.43;;
5357;SDS011;2702;51.014;7.170;2023-08-12T00:47:02;16.20;;;14.50;;
5357;SDS011;2702;51.014;7.170;2023-08-12T00:49:28;13.77;;;12.67;;
5357;SDS011;2702;51.014;7.170;2023-08-12T00:51:56;14.57;;;13.13;;
5357;SDS011;2702;51.014;7.170;2023-08-12T00:54:24;13.70;;;12.00;;
5357;SDS011;2702;51.014;7.170;2023-08-12T00:56:52;14.93;;;13.47;;
5357;SDS011;2702;51.014;7.170;2023-08-12T00:59:20;12.67;;;11.57;;
5357;SDS011;2702;51.014;7.170;2023-08-12T01:01:47;14.17;;;12.87;;
5357;SDS011;2702;51.014;7.170;2023-08-12T01:04:15;13.67;;;12.40;;
5357;SDS011;2702;51.014;7.170;2023-08-12T01:06:41;12.87;;;11.57;;
5357;SDS011;2702;51.014;7.170;2023-08-12T01:09:09;12.57;;;11.47;;
5357;SDS011;2702;51.014;7.170;2023-08-12T01:11:37;13.60;;;12.40;;
5357;SDS011;2702;51.014;7.170;2023-08-12T01:14:28;14.17;;;12.40;;
5357;SDS011;2702;51.014;7.170;2023-08-12T01:17:12;14.40;;;12.93;;
5357;SDS011;2702;51.014;7.170;2023-08-12T01:19:41;11.03;;;10.03;;
5357;SDS011;2702;51.014;7.170;2023-08-12T01:22:11;13.57;;;12.20;;
5357;SDS011;2702;51.014;7.170;2023-08-12T01:24:39;13.73;;;12.53;;
5357;SDS011;2702;51.014;7.170;2023-08-12T01:27:10;13.47;;;12.17;;
5357;SDS011;2702;51.014;7.170;2023-08-12T01:29:38;12.80;;;11.70;;
5357;SDS011;2702;51.014;7.170;2023-08-12T01:32:22;16.90;;;15.40;;
5357;SDS011;2702;51.014;7.170;2023-08-12T01:35:07;13.27;;;12.07;;
5357;SDS011;2702;51.014;7.170;2023-08-12T01:37:43;13.90;;;12.70;;
5357;SDS011;2702;51.014;7.170;2023-08-12T01:40:10;12.63;;;11.40;;
5357;SDS011;2702;51.014;7.170;2023-08-12T01:42:40;14.73;;;13.33;;
5357;SDS011;2702;51.014;7.170;2023-08-12T01:45:08;13.53;;;12.33;;
5357;SDS011;2702;51.014;7.170;2023-08-12T01:47:35;13.90;;;12.70;;
5357;SDS011;2702;51.014;7.170;2023-08-12T01:50:01;14.60;;;13.03;;
5357;SDS011;2702;51.014;7.170;2023-08-12T01:52:28;15.53;;;14.13;;
5357;SDS011;2702;51.014;7.170;2023-08-12T01:54:54;14.37;;;13.10;;
5357;SDS011;2702;51.014;7.170;2023-08-12T01:57:21;14.77;;;13.10;;
5357;SDS011;2702;51.014;7.170;2023-08-12T01:59:47;14.80;;;13.50;;
5357;SDS011;2702;51.014;7.170;2023-08-12T02:02:14;12.77;;;11.67;;
5357;SDS011;2702;51.014;7.170;2023-08-12T02:04:40;12.50;;;11.37;;
5357;SDS011;2702;51.014;7.170;2023-08-12T02:07:08;15.13;;;13.40;;
5357;SDS011;2702;51.014;7.170;2023-08-12T02:09:36;12.97;;;11.77;;
5357;SDS011;2702;51.014;7.170;2023-08-12T02:12:02;14.60;;;13.30;;
5357;SDS011;2702;51.014;7.170;2023-08-12T02:14:29;13.83;;;12.53;;
5357;SDS011;2702;51.014;7.170;2023-08-12T02:16:55;13.93;;;12.33;;
5357;SDS011;2702;51.014;7.170;2023-08-12T02:19:21;14.33;;;13.00;;
5357;SDS011;2702;51.014;7.170;2023-08-12T02:21:47;13.87;;;12.57;;
5357;SDS011;2702;51.014;7.170;2023-08-12T02:24:14;12.43;;;11.43;;
5357;SDS011;2702;51.014;7.170;2023-08-12T02:26:40;11.43;;;10.43;;
5357;SDS011;2702;51.014;7.170;2023-08-12T02:29:07;12.73;;;11.53;;
5357;SDS011;2702;51.014;7.170;2023-08-12T02:31:33;11.30;;;10.40;;
5357;SDS011;2702;51.014;7.170;2023-08-12T02:33:59;12.43;;;11.23;;
5357;SDS011;2702;51.014;7.170;2023-08-12T02:36:26;13.77;;;12.53;;
5357;SDS011;2702;51.014;7.170;2023-08-12T02:38:56;11.27;;;10.27;;
5357;SDS011;2702;51.014;7.170;2023-08-12T02:41:22;12.63;;;11.63;;
5357;SDS011;2702;51.014;7.170;2023-08-12T02:43:49;11.53;;;10.50;;
5357;SDS011;2702;51.014;7.170;2023-08-12T02:46:15;12.03;;;11.03;;
5357;SDS011;2702;51.014;7.170;2023-08-12T02:48:42;13.30;;;12.00;;
5357;SDS011;2702;51.014;7.170;2023-08-12T02:51:09;13.97;;;12.77;;
5357;SDS011;2702;51.014;7.170;2023-08-12T02:53:35;12.63;;;11.43;;
5357;SDS011;2702;51.014;7.170;2023-08-12T02:56:02;11.50;;;10.60;;
5357;SDS011;2702;51.014;7.170;2023-08-12T02:58:28;13.43;;;12.13;;
5357;SDS011;2702;51.014;7.170;2023-08-12T03:00:55;12.37;;;11.27;;
5357;SDS011;2702;51.014;7.170;2023-08-12T03:03:21;12.53;;;11.43;;
5357;SDS011;2702;51.014;7.170;2023-08-12T03:05:48;12.80;;;11.70;;
5357;SDS011;2702;51.014;7.170;2023-08-12T03:08:15;14.30;;;13.00;;
5357;SDS011;2702;51.014;7.170;2023-08-12T03:10:44;13.03;;;11.83;;
5357;SDS011;2702;51.014;7.170;2023-08-12T03:13:12;13.20;;;11.90;;
5357;SDS011;2702;51.014;7.170;2023-08-12T03:15:38;12.93;;;11.83;;
5357;SDS011;2702;51.014;7.170;2023-08-12T03:18:06;13.10;;;11.80;;
5357;SDS011;2702;51.014;7.170;2023-08-12T03:20:33;10.77;;;9.87;;
5357;SDS011;2702;51.014;7.170;2023-08-12T03:22:59;12.60;;;11.60;;
5357;SDS011;2702;51.014;7.170;2023-08-12T03:25:26;13.10;;;12.00;;
5357;SDS011;2702;51.014;7.170;2023-08-12T03:27:52;12.43;;;11.43;;
5357;SDS011;2702;51.014;7.170;2023-08-12T03:30:20;12.53;;;11.33;;
5357;SDS011;2702;51.014;7.170;2023-08-12T03:32:47;13.17;;;11.60;;
5357;SDS011;2702;51.014;7.170;2023-08-12T03:35:14;11.63;;;10.50;;
5357;SDS011;2702;51.014;7.170;2023-08-12T03:37:42;11.20;;;10.20;;
5357;SDS011;2702;51.014;7.170;2023-08-12T03:40:08;10.80;;;10.00;;
5357;SDS011;2702;51.014;7.170;2023-08-12T03:42:37;11.53;;;10.17;;
5357;SDS011;2702;51.014;7.170;2023-08-12T03:45:03;12.13;;;11.13;;
5357;SDS011;2702;51.014;7.170;2023-08-12T03:47:30;11.33;;;10.33;;
5357;SDS011;2702;51.014;7.170;2023-08-12T03:49:57;12.07;;;11.13;;
5357;SDS011;2702;51.014;7.170;2023-08-12T03:52:24;11.67;;;10.50;;
5357;SDS011;2702;51.014;7.170;2023-08-12T03:54:50;11.27;;;10.13;;
5357;SDS011;2702;51.014;7.170;2023-08-12T03:57:19;10.80;;;9.77;;
5357;SDS011;2702;51.014;7.170;2023-08-12T03:59:47;10.73;;;9.73;;
5357;SDS011;2702;51.014;7.170;2023-08-12T04:02:13;10.67;;;9.67;;
5357;SDS011;2702;51.014;7.170;2023-08-12T04:04:39;10.67;;;9.67;;
5357;SDS011;2702;51.014;7.170;2023-08-12T04:07:08;11.50;;;10.50;;
5357;SDS011;2702;51.014;7.170;2023-08-12T04:09:35;11.77;;;10.63;;
5357;SDS011;2702;51.014;7.170;2023-08-12T04:12:01;10.80;;;9.90;;
5357;SDS011;2702;51.014;7.170;2023-08-12T04:14:29;11.37;;;10.13;;
5357;SDS011;2702;51.014;7.170;2023-08-12T04:16:56;11.10;;;9.90;;
5357;SDS011;2702;51.014;7.170;2023-08-12T04:19:22;11.17;;;10.17;;
5357;SDS011;2702;51.014;7.170;2023-08-12T04:21:48;11.00;;;10.10;;
5357;SDS011;2702;51.014;7.170;2023-08-12T04:24:14;10.70;;;9.73;;
5357;SDS011;2702;51.014;7.170;2023-08-12T04:26:41;10.03;;;9.10;;
5357;SDS011;2702;51.014;7.170;2023-08-12T04:29:07;9.23;;;8.53;;
5357;SDS011;2702;51.014;7.170;2023-08-12T04:31:37;10.13;;;9.23;;
5357;SDS011;2702;51.014;7.170;2023-08-12T04:34:03;9.23;;;8.33;;
5357;SDS011;2702;51.014;7.170;2023-08-12T04:36:31;9.07;;;8.27;;
5357;SDS011;2702;51.014;7.170;2023-08-12T04:38:59;9.77;;;8.87;;
5357;SDS011;2702;51.014;7.170;2023-08-12T04:41:26;8.70;;;7.90;;
5357;SDS011;2702;51.014;7.170;2023-08-12T04:43:54;8.57;;;7.87;;
5357;SDS011;2702;51.014;7.170;2023-08-12T04:46:24;11.67;;;7.70;;
5357;SDS011;2702;51.014;7.170;2023-08-12T04:48:51;8.00;;;7.20;;
5357;SDS011;2702;51.014;7.170;2023-08-12T04:51:17;9.03;;;8.23;;
5357;SDS011;2702;51.014;7.170;2023-08-12T04:53:44;8.50;;;7.80;;
5357;SDS011;2702;51.014;7.170;2023-08-12T04:56:10;9.63;;;8.77;;
5357;SDS011;2702;51.014;7.170;2023-08-12T04:58:36;8.80;;;8.00;;
5357;SDS011;2702;51.014;7.170;2023-08-12T05:01:03;9.63;;;8.73;;
5357;SDS011;2702;51.014;7.170;2023-08-12T05:03:29;8.63;;;7.80;;
5357;SDS011;2702;51.014;7.170;2023-08-12T05:05:56;8.40;;;7.80;;
5357;SDS011;2702;51.014;7.170;2023-08-12T05:08:26;8.03;;;7.43;;
5357;SDS011;2702;51.014;7.170;2023-08-12T05:10:52;9.30;;;8.50;;
5357;SDS011;2702;51.014;7.170;2023-08-12T05:13:19;9.57;;;8.77;;
5357;SDS011;2702;51.014;7.170;2023-08-12T05:15:46;8.67;;;8.00;;
5357;SDS011;2702;51.014;7.170;2023-08-12T05:18:13;9.07;;;8.17;;
5357;SDS011;2702;51.014;7.170;2023-08-12T05:20:40;8.57;;;7.87;;
5357;SDS011;2702;51.014;7.170;2023-08-12T05:23:07;9.03;;;8.33;;
5357;SDS011;2702;51.014;7.170;2023-08-12T05:25:34;9.10;;;8.40;;
5357;SDS011;2702;51.014;7.170;2023-08-12T05:28:00;7.73;;;7.10;;
5357;SDS011;2702;51.014;7.170;2023-08-12T05:30:26;9.13;;;8.30;;
5357;SDS011;2702;51.014;7.170;2023-08-12T05:32:53;8.90;;;8.10;;
5357;SDS011;2702;51.014;7.170;2023-08-12T05:35:19;8.47;;;7.77;;
5357;SDS011;2702;51.014;7.170;2023-08-12T05:37:45;8.37;;;7.23;;
5357;SDS011;2702;51.014;7.170;2023-08-12T05:40:11;7.60;;;6.90;;
5357;SDS011;2702;51.014;7.170;2023-08-12T05:42:37;8.50;;;7.70;;
5357;SDS011;2702;51.014;7.170;2023-08-12T05:45:04;8.03;;;7.43;;
5357;SDS011;2702;51.014;7.170;2023-08-12T05:47:31;8.10;;;7.40;;
5357;SDS011;2702;51.014;7.170;2023-08-12T05:49:58;6.87;;;6.33;;
5357;SDS011;2702;51.014;7.170;2023-08-12T05:52:24;8.50;;;7.70;;
5357;SDS011;2702;51.014;7.170;2023-08-12T05:54:50;8.97;;;8.13;;
5357;SDS011;2702;51.014;7.170;2023-08-12T05:57:17;8.13;;;7.33;;
5357;SDS011;2702;51.014;7.170;2023-08-12T05:59:43;7.97;;;7.37;;
5357;SDS011;2702;51.014;7.170;2023-08-12T06:02:09;7.83;;;7.23;;
5357;SDS011;2702;51.014;7.170;2023-08-12T06:04:35;7.17;;;6.63;;
5357;SDS011;2702;51.014;7.170;2023-08-12T06:07:02;7.77;;;7.07;;
5357;SDS011;2702;51.014;7.170;2023-08-12T06:09:28;7.60;;;7.00;;
5357;SDS011;2702;51.014;7.170;2023-08-12T06:11:54;7.00;;;6.50;;
5357;SDS011;2702;51.014;7.170;2023-08-12T06:14:20;9.43;;;8.27;;
5357;SDS011;2702;51.014;7.170;2023-08-12T06:16:46;9.07;;;8.10;;
5357;SDS011;2702;51.014;7.170;2023-08-12T06:19:12;9.20;;;8.40;;
5357;SDS011;2702;51.014;7.170;2023-08-12T06:21:39;8.37;;;7.73;;
5357;SDS011;2702;51.014;7.170;2023-08-12T06:24:05;8.83;;;8.10;;
5357;SDS011;2702;51.014;7.170;2023-08-12T06:26:32;8.83;;;8.20;;
5357;SDS011;2702;51.014;7.170;2023-08-12T06:28:58;7.23;;;6.63;;
5357;SDS011;2702;51.014;7.170;2023-08-12T06:31:24;7.30;;;6.70;;
5357;SDS011;2702;51.014;7.170;2023-08-12T06:33:51;8.97;;;8.30;;
5357;SDS011;2702;51.014;7.170;2023-08-12T06:36:17;8.10;;;7.50;;
5357;SDS011;2702;51.014;7.170;2023-08-12T06:38:43;7.70;;;7.10;;
5357;SDS011;2702;51.014;7.170;2023-08-12T06:41:09;7.30;;;6.70;;
5357;SDS011;2702;51.014;7.170;2023-08-12T06:43:35;7.47;;;6.87;;
5357;SDS011;2702;51.014;7.170;2023-08-12T06:46:02;6.60;;;6.00;;
5357;SDS011;2702;51.014;7.170;2023-08-12T06:48:28;6.63;;;6.03;;
5357;SDS011;2702;51.014;7.170;2023-08-12T06:50:55;6.87;;;6.27;;
5357;SDS011;2702;51.014;7.170;2023-08-12T06:53:22;6.40;;;5.90;;
5357;SDS011;2702;51.014;7.170;2023-08-12T06:55:48;6.60;;;6.00;;
5357;SDS011;2702;51.014;7.170;2023-08-12T06:58:14;6.97;;;6.37;;
5357;SDS011;2702;51.014;7.170;2023-08-12T07:00:40;7.27;;;6.57;;
5357;SDS011;2702;51.014;7.170;2023-08-12T07:03:07;7.20;;;6.60;;
5357;SDS011;2702;51.014;7.170;2023-08-12T07:05:34;7.60;;;6.90;;
5357;SDS011;2702;51.014;7.170;2023-08-12T07:08:00;6.73;;;6.00;;
5357;SDS011;2702;51.014;7.170;2023-08-12T07:10:27;6.80;;;6.30;;
5357;SDS011;2702;51.014;7.170;2023-08-12T07:12:53;7.80;;;7.03;;
5357;SDS011;2702;51.014;7.170;2023-08-12T07:15:19;7.10;;;6.50;;
5357;SDS011;2702;51.014;7.170;2023-08-12T07:17:46;7.40;;;6.80;;
5357;SDS011;2702;51.014;7.170;2023-08-12T07:20:12;8.87;;;8.10;;
5357;SDS011;2702;51.014;7.170;2023-08-12T07:22:38;9.00;;;8.20;;
5357;SDS011;2702;51.014;7.170;2023-08-12T07:25:04;7.17;;;6.57;;
5357;SDS011;2702;51.014;7.170;2023-08-12T07:27:31;7.17;;;6.63;;
5357;SDS011;2702;51.014;7.170;2023-08-12T07:29:57;7.73;;;7.13;;
5357;SDS011;2702;51.014;7.170;2023-08-12T07:32:23;7.20;;;6.60;;
5357;SDS011;2702;51.014;7.170;2023-08-12T07:34:49;7.33;;;6.73;;
5357;SDS011;2702;51.014;7.170;2023-08-12T07:37:15;7.37;;;6.87;;
5357;SDS011;2702;51.014;7.170;2023-08-12T07:39:41;7.00;;;6.60;;
5357;SDS011;2702;51.014;7.170;2023-08-12T07:42:08;7.13;;;6.53;;
5357;SDS011;2702;51.014;7.170;2023-08-12T07:44:34;5.70;;;5.20;;
5357;SDS011;2702;51.014;7.170;2023-08-12T07:47:00;6.00;;;5.20;;
5357;SDS011;2702;51.014;7.170;2023-08-12T07:49:27;8.90;;;6.17;;
5357;SDS011;2702;51.014;7.170;2023-08-12T07:51:53;5.90;;;5.50;;
5357;SDS011;2702;51.014;7.170;2023-08-12T07:54:19;5.87;;;5.37;;
5357;SDS011;2702;51.014;7.170;2023-08-12T07:56:45;6.07;;;5.47;;
5357;SDS011;2702;51.014;7.170;2023-08-12T07:59:11;5.83;;;5.33;;
5357;SDS011;2702;51.014;7.170;2023-08-12T08:01:37;6.00;;;4.87;;
5357;SDS011;2702;51.014;7.170;2023-08-12T08:04:04;5.33;;;4.80;;
5357;SDS011;2702;51.014;7.170;2023-08-12T08:06:30;5.03;;;4.63;;
5357;SDS011;2702;51.014;7.170;2023-08-12T08:08:56;4.33;;;3.93;;
5357;SDS011;2702;51.014;7.170;2023-08-12T08:11:24;5.50;;;4.30;;
5357;SDS011;2702;51.014;7.170;2023-08-12T08:13:50;5.40;;;4.30;;
5357;SDS011;2702;51.014;7.170;2023-08-12T08:16:17;4.30;;;4.00;;
5357;SDS011;2702;51.014;7.170;2023-08-12T08:18:43;4.13;;;3.70;;
5357;SDS011;2702;51.014;7.170;2023-08-12T08:21:09;3.70;;;3.40;;
5357;SDS011;2702;51.014;7.170;2023-08-12T08:23:35;4.73;;;4.23;;
5357;SDS011;2702;51.014;7.170;2023-08-12T08:26:01;4.63;;;3.30;;
5357;SDS011;2702;51.014;7.170;2023-08-12T08:28:28;3.13;;;2.87;;
5357;SDS011;2702;51.014;7.170;2023-08-12T08:30:54;3.30;;;3.10;;
5357;SDS011;2702;51.014;7.170;2023-08-12T08:33:20;3.80;;;3.50;;
5357;SDS011;2702;51.014;7.170;2023-08-12T08:35:46;5.63;;;3.67;;
5357;SDS011;2702;51.014;7.170;2023-08-12T08:38:13;4.23;;;3.30;;
5357;SDS011;2702;51.014;7.170;2023-08-12T08:40:39;3.30;;;3.00;;
5357;SDS011;2702;51.014;7.170;2023-08-12T08:43:05;3.30;;;3.00;;
5357;SDS011;2702;51.014;7.170;2023-08-12T08:45:33;3.90;;;3.23;;
5357;SDS011;2702;51.014;7.170;2023-08-12T08:48:01;2.80;;;2.60;;
5357;SDS011;2702;51.014;7.170;2023-08-12T08:50:31;3.40;;;2.70;;
5357;SDS011;2702;51.014;7.170;2023-08-12T08:52:57;3.30;;;2.80;;
5357;SDS011;2702;51.014;7.170;2023-08-12T08:55:27;2.93;;;2.63;;
5357;SDS011;2702;51.014;7.170;2023-08-12T08:57:53;3.63;;;2.60;;
5357;SDS011;2702;51.014;7.170;2023-08-12T09:00:20;3.30;;;3.00;;
5357;SDS011;2702;51.014;7.170;2023-08-12T09:02:46;2.43;;;2.23;;
5357;SDS011;2702;51.014;7.170;2023-08-12T09:05:16;4.50;;;2.70;;
5357;SDS011;2702;51.014;7.170;2023-08-12T09:07:43;4.20;;;3.03;;
5357;SDS011;2702;51.014;7.170;2023-08-12T09:10:10;2.80;;;2.60;;
5357;SDS011;2702;51.014;7.170;2023-08-12T09:12:37;2.53;;;2.33;;
5357;SDS011;2702;51.014;7.170;2023-08-12T09:15:03;3.10;;;2.20;;
5357;SDS011;2702;51.014;7.170;2023-08-12T09:17:32;3.17;;;2.80;;
5357;SDS011;2702;51.014;7.170;2023-08-12T09:19:58;3.50;;;3.23;;
5357;SDS011;2702;51.014;7.170;2023-08-12T09:22:25;3.03;;;2.83;;
5357;SDS011;2702;51.014;7.170;2023-08-12T09:24:57;3.00;;;2.63;;
5357;SDS011;2702;51.014;7.170;2023-08-12T09:27:24;3.10;;;2.90;;
5357;SDS011;2702;51.014;7.170;2023-08-12T09:29:54;2.67;;;2.47;;
5357;SDS011;2702;51.014;7.170;2023-08-12T09:32:23;2.77;;;2.57;;
5357;SDS011;2702;51.014;7.170;2023-08-12T09:34:50;3.73;;;2.67;;
5357;SDS011;2702;51.014;7.170;2023-08-12T09:37:18;2.77;;;2.50;;
5357;SDS011;2702;51.014;7.170;2023-08-12T09:39:47;2.57;;;2.37;;
5357;SDS011;2702;51.014;7.170;2023-08-12T09:42:15;2.50;;;2.10;;
5357;SDS011;2702;51.014;7.170;2023-08-12T09:44:42;2.67;;;2.47;;
5357;SDS011;2702;51.014;7.170;2023-08-12T09:47:08;2.70;;;2.40;;
5357;SDS011;2702;51.014;7.170;2023-08-12T09:49:35;2.97;;;2.30;;
5357;SDS011;2702;51.014;7.170;2023-08-12T09:52:02;2.67;;;2.40;;
5357;SDS011;2702;51.014;7.170;2023-08-12T09:54:33;2.50;;;2.30;;
5357;SDS011;2702;51.014;7.170;2023-08-12T09:57:03;2.63;;;2.43;;
5357;SDS011;2702;51.014;7.170;2023-08-12T09:59:32;4.00;;;2.43;;
5357;SDS011;2702;51.014;7.170;2023-08-12T10:02:01;2.10;;;2.00;;
5357;SDS011;2702;51.014;7.170;2023-08-12T10:04:35;2.40;;;2.20;;
5357;SDS011;2702;51.014;7.170;2023-08-12T10:07:09;2.23;;;1.80;;
5357;SDS011;2702;51.014;7.170;2023-08-12T10:09:38;1.53;;;1.43;;
5357;SDS011;2702;51.014;7.170;2023-08-12T10:12:05;2.30;;;2.20;;
5357;SDS011;2702;51.014;7.170;2023-08-12T10:14:33;2.87;;;2.40;;
5357;SDS011;2702;51.014;7.170;2023-08-12T10:16:59;2.23;;;2.03;;
5357;SDS011;2702;51.014;7.170;2023-08-12T10:19:26;2.13;;;1.90;;
5357;SDS011;2702;51.014;7.170;2023-08-12T10:21:56;2.37;;;2.20;;
5357;SDS011;2702;51.014;7.170;2023-08-12T10:24:28;2.60;;;2.10;;
5357;SDS011;2702;51.014;7.170;2023-08-12T10:26:55;2.10;;;1.90;;
5357;SDS011;2702;51.014;7.170;2023-08-12T10:29:24;2.33;;;2.13;;
5357;SDS011;2702;51.014;7.170;2023-08-12T10:31:50;3.10;;;1.83;;
5357;SDS011;2702;51.014;7.170;2023-08-12T10:34:20;2.50;;;2.30;;
5357;SDS011;2702;51.014;7.170;2023-08-12T10:36:48;2.50;;;2.30;;
5357;SDS011;2702;51.014;7.170;2023-08-12T10:39:25;2.57;;;2.47;;
5357;SDS011;2702;51.014;7.170;2023-08-12T10:41:54;1.97;;;1.87;;
5357;SDS011;2702;51.014;7.170;2023-08-12T10:44:21;2.53;;;2.20;;
5357;SDS011;2702;51.014;7.170;2023-08-12T10:46:51;2.60;;;2.40;;
5357;SDS011;2702;51.014;7.170;2023-08-12T10:49:19;2.93;;;2.63;;
5357;SDS011;2702;51.014;7.170;2023-08-12T10:54:25;2.70;;;2.33;;
5357;SDS011;2702;51.014;7.170;2023-08-12T11:02:16;2.60;;;2.40;;
5357;SDS011;2702;51.014;7.170;2023-08-12T11:05:07;2.93;;;2.13;;
5357;SDS011;2702;51.014;7.170;2023-08-12T11:07:38;2.47;;;2.27;;
5357;SDS011;2702;51.014;7.170;2023-08-12T11:10:21;2.63;;;2.27;;
5357;SDS011;2702;51.014;7.170;2023-08-12T11:15:17;2.50;;;2.30;;
5357;SDS011;2702;51.014;7.170;2023-08-12T11:17:48;3.80;;;2.40;;
5357;SDS011;2702;51.014;7.170;2023-08-12T11:20:14;3.97;;;2.30;;
5357;SDS011;2702;51.014;7.170;2023-08-12T11:22:41;2.67;;;2.47;;
5357;SDS011;2702;51.014;7.170;2023-08-12T11:25:09;2.37;;;2.27;;
5357;SDS011;2702;51.014;7.170;2023-08-12T11:30:11;2.80;;;2.60;;
5357;SDS011;2702;51.014;7.170;2023-08-12T11:32:44;2.50;;;2.30;;
5357;SDS011;2702;51.014;7.170;2023-08-12T11:35:13;2.63;;;2.30;;
5357;SDS011;2702;51.014;7.170;2023-08-12T11:37:41;2.43;;;2.23;;
5357;SDS011;2702;51.014;7.170;2023-08-12T11:40:11;3.00;;;2.80;;
5357;SDS011;2702;51.014;7.170;2023-08-12T11:42:42;2.53;;;2.33;;
5357;SDS011;2702;51.014;7.170;2023-08-12T11:45:13;2.67;;;2.47;;
5357;SDS011;2702;51.014;7.170;2023-08-12T11:47:41;2.90;;;2.10;;
5357;SDS011;2702;51.014;7.170;2023-08-12T11:50:09;3.00;;;2.77;;
5357;SDS011;2702;51.014;7.170;2023-08-12T11:52:38;3.07;;;2.50;;
5357;SDS011;2702;51.014;7.170;2023-08-12T11:55:05;3.10;;;2.50;;
5357;SDS011;2702;51.014;7.170;2023-08-12T11:57:32;2.30;;;2.17;;
5357;SDS011;2702;51.014;7.170;2023-08-12T12:00:00;3.20;;;2.57;;
5357;SDS011;2702;51.014;7.170;2023-08-12T12:02:40;2.60;;;2.40;;
5357;SDS011;2702;51.014;7.170;2023-08-12T12:05:11;3.17;;;2.87;;
5357;SDS011;2702;51.014;7.170;2023-08-12T12:07:38;3.73;;;2.43;;
5357;SDS011;2702;51.014;7.170;2023-08-12T12:10:04;3.07;;;2.70;;
5357;SDS011;2702;51.014;7.170;2023-08-12T12:12:34;2.90;;;2.70;;
5357;SDS011;2702;51.014;7.170;2023-08-12T12:15:02;2.70;;;2.50;;
5357;SDS011;2702;51.014;7.170;2023-08-12T12:17:30;2.83;;;2.63;;
5357;SDS011;2702;51.014;7.170;2023-08-12T12:19:56;2.63;;;2.43;;
5357;SDS011;2702;51.014;7.170;2023-08-12T12:22:31;3.10;;;2.53;;
5357;SDS011;2702;51.014;7.170;2023-08-12T12:24:59;3.03;;;2.83;;
5357;SDS011;2702;51.014;7.170;2023-08-12T12:27:26;2.80;;;2.60;;
5357;SDS011;2702;51.014;7.170;2023-08-12T12:29:53;2.70;;;2.50;;
5357;SDS011;2702;51.014;7.170;2023-08-12T12:32:20;3.17;;;2.90;;
5357;SDS011;2702;51.014;7.170;2023-08-12T12:34:47;3.17;;;2.93;;
5357;SDS011;2702;51.014;7.170;2023-08-12T12:37:13;4.77;;;2.90;;
5357;SDS011;2702;51.014;7.170;2023-08-12T12:39:40;3.33;;;2.67;;
5357;SDS011;2702;51.014;7.170;2023-08-12T12:42:06;2.83;;;2.60;;
5357;SDS011;2702;51.014;7.170;2023-08-12T12:44:33;4.40;;;2.73;;
5357;SDS011;2702;51.014;7.170;2023-08-12T12:46:59;3.27;;;3.00;;
5357;SDS011;2702;51.014;7.170;2023-08-12T12:49:25;3.37;;;2.73;;
5357;SDS011;2702;51.014;7.170;2023-08-12T12:51:51;3.37;;;3.17;;
5357;SDS011;2702;51.014;7.170;2023-08-12T12:54:18;3.20;;;3.00;;
5357;SDS011;2702;51.014;7.170;2023-08-12T12:56:44;3.63;;;2.90;;
5357;SDS011;2702;51.014;7.170;2023-08-12T12:59:10;2.80;;;2.60;;
5357;SDS011;2702;51.014;7.170;2023-08-12T13:01:36;3.43;;;3.17;;
5357;SDS011;2702;51.014;7.170;2023-08-12T13:04:03;3.40;;;2.60;;
5357;SDS011;2702;51.014;7.170;2023-08-12T13:06:29;2.80;;;2.50;;
5357;SDS011;2702;51.014;7.170;2023-08-12T13:08:55;2.97;;;2.67;;
5357;SDS011;2702;51.014;7.170;2023-08-12T13:11:21;2.17;;;1.97;;
5357;SDS011;2702;51.014;7.170;2023-08-12T13:13:48;2.20;;;2.10;;
5357;SDS011;2702;51.014;7.170;2023-08-12T13:16:14;1.90;;;1.80;;
5357;SDS011;2702;51.014;7.170;2023-08-12T13:18:41;1.97;;;1.87;;
5357;SDS011;2702;51.014;7.170;2023-08-12T13:21:08;1.90;;;1.80;;
5357;SDS011;2702;51.014;7.170;2023-08-12T13:23:34;2.23;;;2.13;;
5357;SDS011;2702;51.014;7.170;2023-08-12T13:26:00;2.97;;;2.77;;
5357;SDS011;2702;51.014;7.170;2023-08-12T13:28:26;6.60;;;2.60;;
5357;SDS011;2702;51.014;7.170;2023-08-12T13:30:53;2.50;;;2.30;;
5357;SDS011;2702;51.014;7.170;2023-08-12T13:33:19;2.87;;;2.33;;
5357;SDS011;2702;51.014;7.170;2023-08-12T13:35:45;3.40;;;2.90;;
5357;SDS011;2702;51.014;7.170;2023-08-12T13:38:12;2.53;;;2.20;;
5357;SDS011;2702;51.014;7.170;2023-08-12T13:40:38;4.00;;;2.67;;
5357;SDS011;2702;51.014;7.170;2023-08-12T13:43:04;2.70;;;2.33;;
5357;SDS011;2702;51.014;7.170;2023-08-12T13:45:30;3.00;;;2.10;;
5357;SDS011;2702;51.014;7.170;2023-08-12T13:47:56;2.40;;;2.20;;
5357;SDS011;2702;51.014;7.170;2023-08-12T13:50:23;4.13;;;1.83;;
5357;SDS011;2702;51.014;7.170;2023-08-12T13:52:49;1.33;;;1.23;;
5357;SDS011;2702;51.014;7.170;2023-08-12T13:55:18;1.47;;;1.37;;
5357;SDS011;2702;51.014;7.170;2023-08-12T13:57:44;1.47;;;1.27;;
5357;SDS011;2702;51.014;7.170;2023-08-12T14:00:10;1.60;;;1.23;;
5357;SDS011;2702;51.014;7.170;2023-08-12T14:02:41;1.93;;;1.40;;
5357;SDS011;2702;51.014;7.170;2023-08-12T14:05:08;1.50;;;1.40;;
5357;SDS011;2702;51.014;7.170;2023-08-12T14:07:36;3.17;;;2.03;;
5357;SDS011;2702;51.014;7.170;2023-08-12T14:10:03;2.10;;;1.90;;
5357;SDS011;2702;51.014;7.170;2023-08-12T14:12:30;2.23;;;2.03;;
5357;SDS011;2702;51.014;7.170;2023-08-12T14:14:56;2.03;;;1.93;;
5357;SDS011;2702;51.014;7.170;2023-08-12T14:17:23;2.87;;;2.50;;
5357;SDS011;2702;51.014;7.170;2023-08-12T14:19:51;2.80;;;1.90;;
5357;SDS011;2702;51.014;7.170;2023-08-12T14:22:19;2.40;;;2.20;;
5357;SDS011;2702;51.014;7.170;2023-08-12T14:24:46;2.33;;;2.07;;
5357;SDS011;2702;51.014;7.170;2023-08-12T14:27:14;1.70;;;1.60;;
5357;SDS011;2702;51.014;7.170;2023-08-12T14:29:43;2.80;;;2.10;;
5357;SDS011;2702;51.014;7.170;2023-08-12T14:32:10;2.20;;;2.00;;
5357;SDS011;2702;51.014;7.170;2023-08-12T14:34:37;2.70;;;2.27;;
5357;SDS011;2702;51.014;7.170;2023-08-12T14:37:03;2.30;;;2.10;;
5357;SDS011;2702;51.014;7.170;2023-08-12T14:39:29;2.10;;;1.90;;
5357;SDS011;2702;51.014;7.170;2023-08-12T14:41:56;2.40;;;2.20;;
5357;SDS011;2702;51.014;7.170;2023-08-12T14:44:22;2.33;;;2.10;;
5357;SDS011;2702;51.014;7.170;2023-08-12T14:46:48;2.47;;;2.00;;
5357;SDS011;2702;51.014;7.170;2023-08-12T14:49:15;2.00;;;1.90;;
5357;SDS011;2702;51.014;7.170;2023-08-12T14:51:41;2.20;;;2.00;;
5357;SDS011;2702;51.014;7.170;2023-08-12T14:54:07;1.87;;;1.77;;
5357;SDS011;2702;51.014;7.170;2023-08-12T14:56:33;1.80;;;1.70;;
5357;SDS011;2702;51.014;7.170;2023-08-12T14:58:59;1.63;;;1.53;;
5357;SDS011;2702;51.014;7.170;2023-08-12T15:01:26;1.60;;;1.50;;
5357;SDS011;2702;51.014;7.170;2023-08-12T15:03:54;1.83;;;1.50;;
5357;SDS011;2702;51.014;7.170;2023-08-12T15:06:21;1.17;;;1.07;;
5357;SDS011;2702;51.014;7.170;2023-08-12T15:08:47;1.20;;;1.10;;
5357;SDS011;2702;51.014;7.170;2023-08-12T15:11:15;1.50;;;1.20;;
5357;SDS011;2702;51.014;7.170;2023-08-12T15:13:41;1.53;;;1.27;;
5357;SDS011;2702;51.014;7.170;2023-08-12T15:16:07;1.50;;;1.10;;
5357;SDS011;2702;51.014;7.170;2023-08-12T15:18:34;1.70;;;1.60;;
5357;SDS011;2702;51.014;7.170;2023-08-12T15:21:00;1.40;;;1.30;;